Terminal Aerodrome Forecast
Issued by NWS

Home | Current Version | Previous Version | Text Only | Print | Product List | Glossary On
Versions: 1 2 3 4 5 6 7 8 9 10 11 12 13 14 15 16 17 18 19
131
FTUS41 KAKQ 201138
TAFPHF
TAF
KPHF 201138Z 2012/2112 15004KT P6SM BKN100
     FM201600 15006KT P6SM VCSH OVC060
     FM201800 14007KT 6SM -RA OVC030
     FM202000 12006KT P6SM VCSH OVC020
     FM202300 11004KT P6SM OVC025
     FM210200 00000KT 4SM -DZ BR BKN030
     FM210700 00000KT 2SM -DZ BR BKN005=

USA.gov is the U.S. government's official web portal to all federal, state and local government web resources and services.